Philadelphia, Pennsylvania
Traffic Map
Current Weather Conditions
Philadelphia, Pennsylvania
Overcast
Overcast
16°
Feels Like: 16°
Wind Chill: 16° Ceiling: 4300
Heat Index: 16° Visibility: 10mi
Dew Point: 12° Wind: 10mph
Humidity: 75% Direction: 300° (WNW)
Pressure: 29.66in Gusts: 0mph
Raw Report DataKPHL 260554Z 30009KT 10SM BKN043 OVC065 16/12 A2966 RMK AO2 SLP042 T01610117 10178 20156 56006 $
Traffic Incident Summary
Active as of:
Severity:
Category:
InformationThere was an issue retrieving the traffic information for this location. Please try a different location or try again shortly.
Advertisements